sensor_id;sensor_type;location;lat;lon;timestamp;temperature;humidity
71801;HTU21D;59647;55.838;37.292;2023-04-28T00:01:10;14.24;63.56
71801;HTU21D;59647;55.838;37.292;2023-04-28T00:03:37;14.13;62.24
71801;HTU21D;59647;55.838;37.292;2023-04-28T00:06:03;14.08;66.97
71801;HTU21D;59647;55.838;37.292;2023-04-28T00:08:29;14.00;64.68
71801;HTU21D;59647;55.838;37.292;2023-04-28T00:10:55;14.01;64.94
71801;HTU21D;59647;55.838;37.292;2023-04-28T00:13:20;14.05;65.12
71801;HTU21D;59647;55.838;37.292;2023-04-28T00:15:48;14.07;66.94
71801;HTU21D;59647;55.838;37.292;2023-04-28T00:18:14;14.04;65.60
71801;HTU21D;59647;55.838;37.292;2023-04-28T00:20:40;14.08;65.86
71801;HTU21D;59647;55.838;37.292;2023-04-28T00:23:06;14.04;65.56
71801;HTU21D;59647;55.838;37.292;2023-04-28T00:25:32;13.93;65.42
71801;HTU21D;59647;55.838;37.292;2023-04-28T00:27:58;13.89;65.68
71801;HTU21D;59647;55.838;37.292;2023-04-28T00:30:24;13.78;65.72
71801;HTU21D;59647;55.838;37.292;2023-04-28T00:32:49;13.68;66.19
71801;HTU21D;59647;55.838;37.292;2023-04-28T00:35:16;13.63;67.06
71801;HTU21D;59647;55.838;37.292;2023-04-28T00:37:42;13.58;65.83
71801;HTU21D;59647;55.838;37.292;2023-04-28T00:40:08;13.50;66.32
71801;HTU21D;59647;55.838;37.292;2023-04-28T00:42:36;13.45;66.21
71801;HTU21D;59647;55.838;37.292;2023-04-28T00:45:02;13.47;66.32
71801;HTU21D;59647;55.838;37.292;2023-04-28T00:47:32;13.46;66.30
71801;HTU21D;59647;55.838;37.292;2023-04-28T00:49:59;13.48;66.09
71801;HTU21D;59647;55.838;37.292;2023-04-28T00:52:26;13.48;66.39
71801;HTU21D;59647;55.838;37.292;2023-04-28T00:54:53;13.45;66.46
71801;HTU21D;59647;55.838;37.292;2023-04-28T00:57:21;13.41;66.59
71801;HTU21D;59647;55.838;37.292;2023-04-28T00:59:47;13.40;66.31
71801;HTU21D;59647;55.838;37.292;2023-04-28T01:02:13;13.43;66.84
71801;HTU21D;59647;55.838;37.292;2023-04-28T01:04:45;13.36;67.19
71801;HTU21D;59647;55.838;37.292;2023-04-28T01:07:13;13.35;66.69
71801;HTU21D;59647;55.838;37.292;2023-04-28T01:09:39;13.26;66.95
71801;HTU21D;59647;55.838;37.292;2023-04-28T01:12:06;13.25;66.98
71801;HTU21D;59647;55.838;37.292;2023-04-28T01:14:41;13.22;67.07
71801;HTU21D;59647;55.838;37.292;2023-04-28T01:17:07;13.16;67.44
71801;HTU21D;59647;55.838;37.292;2023-04-28T01:19:33;13.19;67.14
71801;HTU21D;59647;55.838;37.292;2023-04-28T01:22:01;13.25;66.64
71801;HTU21D;59647;55.838;37.292;2023-04-28T01:24:27;13.30;67.13
71801;HTU21D;59647;55.838;37.292;2023-04-28T01:26:55;13.27;66.94
71801;HTU21D;59647;55.838;37.292;2023-04-28T01:29:21;13.33;66.81
71801;HTU21D;59647;55.838;37.292;2023-04-28T01:31:47;13.43;66.17
71801;HTU21D;59647;55.838;37.292;2023-04-28T01:34:13;13.50;66.17
71801;HTU21D;59647;55.838;37.292;2023-04-28T01:36:39;13.58;66.53
71801;HTU21D;59647;55.838;37.292;2023-04-28T01:39:05;13.70;66.22
71801;HTU21D;59647;55.838;37.292;2023-04-28T01:41:32;13.77;67.87
71801;HTU21D;59647;55.838;37.292;2023-04-28T01:44:03;13.78;67.91
71801;HTU21D;59647;55.838;37.292;2023-04-28T01:46:30;13.84;68.32
71801;HTU21D;59647;55.838;37.292;2023-04-28T01:48:57;13.94;68.48
71801;HTU21D;59647;55.838;37.292;2023-04-28T01:51:23;13.97;69.59
71801;HTU21D;59647;55.838;37.292;2023-04-28T01:53:49;14.01;68.47
71801;HTU21D;59647;55.838;37.292;2023-04-28T01:56:15;14.12;70.42
71801;HTU21D;59647;55.838;37.292;2023-04-28T01:58:41;14.15;69.71
71801;HTU21D;59647;55.838;37.292;2023-04-28T02:01:09;14.21;69.88
71801;HTU21D;59647;55.838;37.292;2023-04-28T02:03:35;14.23;69.47
71801;HTU21D;59647;55.838;37.292;2023-04-28T02:06:02;14.23;71.40
71801;HTU21D;59647;55.838;37.292;2023-04-28T02:08:29;14.25;68.78
71801;HTU21D;59647;55.838;37.292;2023-04-28T02:10:56;14.26;70.32
71801;HTU21D;59647;55.838;37.292;2023-04-28T02:13:23;14.28;68.94
71801;HTU21D;59647;55.838;37.292;2023-04-28T02:15:50;14.32;69.43
71801;HTU21D;59647;55.838;37.292;2023-04-28T02:18:15;14.37;69.59
71801;HTU21D;59647;55.838;37.292;2023-04-28T02:20:41;14.40;68.13
71801;HTU21D;59647;55.838;37.292;2023-04-28T02:23:07;14.40;68.03
71801;HTU21D;59647;55.838;37.292;2023-04-28T02:25:34;14.41;67.74
71801;HTU21D;59647;55.838;37.292;2023-04-28T02:28:00;14.43;67.43
71801;HTU21D;59647;55.838;37.292;2023-04-28T02:30:26;14.44;67.49
71801;HTU21D;59647;55.838;37.292;2023-04-28T02:32:53;14.47;68.78
71801;HTU21D;59647;55.838;37.292;2023-04-28T02:35:19;14.49;68.94
71801;HTU21D;59647;55.838;37.292;2023-04-28T02:37:45;14.51;68.32
71801;HTU21D;59647;55.838;37.292;2023-04-28T02:40:11;14.52;68.33
71801;HTU21D;59647;55.838;37.292;2023-04-28T02:42:37;14.54;67.70
71801;HTU21D;59647;55.838;37.292;2023-04-28T02:45:04;14.58;68.01
71801;HTU21D;59647;55.838;37.292;2023-04-28T02:47:32;14.59;67.52
71801;HTU21D;59647;55.838;37.292;2023-04-28T02:49:59;14.63;67.55
71801;HTU21D;59647;55.838;37.292;2023-04-28T02:52:25;14.64;67.27
71801;HTU21D;59647;55.838;37.292;2023-04-28T02:54:51;14.64;66.73
71801;HTU21D;59647;55.838;37.292;2023-04-28T02:57:21;14.67;66.40
71801;HTU21D;59647;55.838;37.292;2023-04-28T02:59:47;14.69;67.70
71801;HTU21D;59647;55.838;37.292;2023-04-28T03:02:13;14.73;66.76
71801;HTU21D;59647;55.838;37.292;2023-04-28T03:04:40;14.75;68.13
71801;HTU21D;59647;55.838;37.292;2023-04-28T03:07:06;14.72;70.55
71801;HTU21D;59647;55.838;37.292;2023-04-28T03:09:33;14.78;66.73
71801;HTU21D;59647;55.838;37.292;2023-04-28T03:11:59;14.83;66.47
71801;HTU21D;59647;55.838;37.292;2023-04-28T03:14:29;14.85;66.45
71801;HTU21D;59647;55.838;37.292;2023-04-28T03:16:55;14.91;67.73
71801;HTU21D;59647;55.838;37.292;2023-04-28T03:19:22;14.95;67.23
71801;HTU21D;59647;55.838;37.292;2023-04-28T03:21:48;14.97;68.22
71801;HTU21D;59647;55.838;37.292;2023-04-28T03:24:14;14.96;68.42
71801;HTU21D;59647;55.838;37.292;2023-04-28T03:26:40;14.97;67.48
71801;HTU21D;59647;55.838;37.292;2023-04-28T03:29:07;15.00;67.84
71801;HTU21D;59647;55.838;37.292;2023-04-28T03:31:33;15.02;68.48
71801;HTU21D;59647;55.838;37.292;2023-04-28T03:34:00;15.02;67.47
71801;HTU21D;59647;55.838;37.292;2023-04-28T03:36:28;15.07;68.36
71801;HTU21D;59647;55.838;37.292;2023-04-28T03:38:58;15.09;68.04
71801;HTU21D;59647;55.838;37.292;2023-04-28T03:41:24;15.12;68.04
71801;HTU21D;59647;55.838;37.292;2023-04-28T03:44:08;15.16;67.40
71801;HTU21D;59647;55.838;37.292;2023-04-28T03:46:44;15.17;70.13
71801;HTU21D;59647;55.838;37.292;2023-04-28T03:49:11;15.19;68.38
71801;HTU21D;59647;55.838;37.292;2023-04-28T03:51:37;15.21;68.33
71801;HTU21D;59647;55.838;37.292;2023-04-28T03:54:03;15.30;68.15
71801;HTU21D;59647;55.838;37.292;2023-04-28T03:56:30;15.39;67.66
71801;HTU21D;59647;55.838;37.292;2023-04-28T03:58:56;15.47;68.62
71801;HTU21D;59647;55.838;37.292;2023-04-28T04:01:21;15.54;66.94
71801;HTU21D;59647;55.838;37.292;2023-04-28T04:03:49;15.62;66.86
71801;HTU21D;59647;55.838;37.292;2023-04-28T04:06:15;15.69;67.19
71801;HTU21D;59647;55.838;37.292;2023-04-28T04:08:42;15.75;67.55
71801;HTU21D;59647;55.838;37.292;2023-04-28T04:11:08;15.81;67.13
71801;HTU21D;59647;55.838;37.292;2023-04-28T04:13:34;15.85;67.29
71801;HTU21D;59647;55.838;37.292;2023-04-28T04:16:04;15.93;66.90
71801;HTU21D;59647;55.838;37.292;2023-04-28T04:18:31;16.01;67.46
71801;HTU21D;59647;55.838;37.292;2023-04-28T04:21:11;16.07;67.21
71801;HTU21D;59647;55.838;37.292;2023-04-28T04:23:37;16.13;67.21
71801;HTU21D;59647;55.838;37.292;2023-04-28T04:26:03;16.16;67.18
71801;HTU21D;59647;55.838;37.292;2023-04-28T04:28:31;16.16;67.26
71801;HTU21D;59647;55.838;37.292;2023-04-28T04:30:56;16.17;68.24
71801;HTU21D;59647;55.838;37.292;2023-04-28T04:33:23;16.24;66.24
71801;HTU21D;59647;55.838;37.292;2023-04-28T04:35:49;16.28;66.80
71801;HTU21D;59647;55.838;37.292;2023-04-28T04:38:15;16.27;67.65
71801;HTU21D;59647;55.838;37.292;2023-04-28T04:40:41;16.28;66.82
71801;HTU21D;59647;55.838;37.292;2023-04-28T04:43:08;16.27;69.21
71801;HTU21D;59647;55.838;37.292;2023-04-28T04:45:42;16.14;69.78
71801;HTU21D;59647;55.838;37.292;2023-04-28T04:48:08;16.06;68.72
71801;HTU21D;59647;55.838;37.292;2023-04-28T04:50:34;16.01;69.68
71801;HTU21D;59647;55.838;37.292;2023-04-28T04:53:01;15.97;69.65
71801;HTU21D;59647;55.838;37.292;2023-04-28T04:55:27;15.86;73.22
71801;HTU21D;59647;55.838;37.292;2023-04-28T04:57:54;15.80;70.12
71801;HTU21D;59647;55.838;37.292;2023-04-28T05:00:41;15.70;76.24
71801;HTU21D;59647;55.838;37.292;2023-04-28T05:03:08;15.67;70.77
71801;HTU21D;59647;55.838;37.292;2023-04-28T05:05:34;15.63;72.57
71801;HTU21D;59647;55.838;37.292;2023-04-28T05:08:16;15.63;70.84
71801;HTU21D;59647;55.838;37.292;2023-04-28T05:10:42;15.69;70.00
71801;HTU21D;59647;55.838;37.292;2023-04-28T05:13:08;15.73;71.01
71801;HTU21D;59647;55.838;37.292;2023-04-28T05:15:34;15.72;72.22
71801;HTU21D;59647;55.838;37.292;2023-04-28T05:18:27;15.77;70.00
71801;HTU21D;59647;55.838;37.292;2023-04-28T05:20:53;15.81;69.68
71801;HTU21D;59647;55.838;37.292;2023-04-28T05:23:19;15.80;72.31
71801;HTU21D;59647;55.838;37.292;2023-04-28T05:25:46;15.78;73.28
71801;HTU21D;59647;55.838;37.292;2023-04-28T05:28:13;15.78;71.51
71801;HTU21D;59647;55.838;37.292;2023-04-28T05:30:40;15.73;75.31
71801;HTU21D;59647;55.838;37.292;2023-04-28T05:33:06;15.71;74.41
71801;HTU21D;59647;55.838;37.292;2023-04-28T05:35:32;15.68;77.18
71801;HTU21D;59647;55.838;37.292;2023-04-28T05:37:58;15.62;78.27
71801;HTU21D;59647;55.838;37.292;2023-04-28T05:40:24;15.57;76.41
71801;HTU21D;59647;55.838;37.292;2023-04-28T05:42:51;15.51;76.56
71801;HTU21D;59647;55.838;37.292;2023-04-28T05:45:16;15.51;76.04
71801;HTU21D;59647;55.838;37.292;2023-04-28T05:47:43;15.46;75.70
71801;HTU21D;59647;55.838;37.292;2023-04-28T05:50:09;15.41;75.99
71801;HTU21D;59647;55.838;37.292;2023-04-28T05:52:35;15.43;74.25
71801;HTU21D;59647;55.838;37.292;2023-04-28T05:55:02;15.45;74.90
71801;HTU21D;59647;55.838;37.292;2023-04-28T05:57:30;15.45;75.09
71801;HTU21D;59647;55.838;37.292;2023-04-28T05:59:56;15.51;74.57
71801;HTU21D;59647;55.838;37.292;2023-04-28T06:02:22;15.56;75.36
71801;HTU21D;59647;55.838;37.292;2023-04-28T06:04:48;15.61;75.92
71801;HTU21D;59647;55.838;37.292;2023-04-28T06:07:15;15.69;75.61
71801;HTU21D;59647;55.838;37.292;2023-04-28T06:09:41;15.73;77.50
71801;HTU21D;59647;55.838;37.292;2023-04-28T06:12:07;15.82;75.76
71801;HTU21D;59647;55.838;37.292;2023-04-28T06:14:33;15.84;76.89
71801;HTU21D;59647;55.838;37.292;2023-04-28T06:17:02;15.84;76.51
71801;HTU21D;59647;55.838;37.292;2023-04-28T06:19:29;15.91;76.61
71801;HTU21D;59647;55.838;37.292;2023-04-28T06:21:54;15.98;76.28
71801;HTU21D;59647;55.838;37.292;2023-04-28T06:24:20;16.06;76.93
71801;HTU21D;59647;55.838;37.292;2023-04-28T06:26:47;16.13;77.41
71801;HTU21D;59647;55.838;37.292;2023-04-28T06:29:13;16.25;75.89
71801;HTU21D;59647;55.838;37.292;2023-04-28T06:31:39;16.47;76.31
71801;HTU21D;59647;55.838;37.292;2023-04-28T06:34:05;16.63;79.29
71801;HTU21D;59647;55.838;37.292;2023-04-28T06:36:32;16.75;75.56
71801;HTU21D;59647;55.838;37.292;2023-04-28T06:38:58;16.88;75.20
71801;HTU21D;59647;55.838;37.292;2023-04-28T06:41:24;17.01;74.62
71801;HTU21D;59647;55.838;37.292;2023-04-28T06:43:51;17.11;75.02
71801;HTU21D;59647;55.838;37.292;2023-04-28T06:46:24;17.33;75.45
71801;HTU21D;59647;55.838;37.292;2023-04-28T06:48:52;17.50;74.88
71801;HTU21D;59647;55.838;37.292;2023-04-28T06:51:18;17.70;74.76
71801;HTU21D;59647;55.838;37.292;2023-04-28T06:53:43;17.99;73.90
71801;HTU21D;59647;55.838;37.292;2023-04-28T06:56:09;18.25;74.16
71801;HTU21D;59647;55.838;37.292;2023-04-28T06:58:35;18.48;72.95
71801;HTU21D;59647;55.838;37.292;2023-04-28T07:01:01;18.68;72.57
71801;HTU21D;59647;55.838;37.292;2023-04-28T07:03:28;18.87;72.80
71801;HTU21D;59647;55.838;37.292;2023-04-28T07:05:54;19.02;72.10
71801;HTU21D;59647;55.838;37.292;2023-04-28T07:08:20;19.08;71.22
71801;HTU21D;59647;55.838;37.292;2023-04-28T07:10:46;19.24;71.40
71801;HTU21D;59647;55.838;37.292;2023-04-28T07:13:12;19.26;70.10
71801;HTU21D;59647;55.838;37.292;2023-04-28T07:15:38;19.28;69.77
71801;HTU21D;59647;55.838;37.292;2023-04-28T07:18:04;19.30;70.56
71801;HTU21D;59647;55.838;37.292;2023-04-28T07:20:30;19.35;71.13
71801;HTU21D;59647;55.838;37.292;2023-04-28T07:22:56;19.43;69.84
71801;HTU21D;59647;55.838;37.292;2023-04-28T07:25:22;19.48;69.55
71801;HTU21D;59647;55.838;37.292;2023-04-28T07:27:48;19.32;69.88
71801;HTU21D;59647;55.838;37.292;2023-04-28T07:30:14;19.27;69.62
71801;HTU21D;59647;55.838;37.292;2023-04-28T07:32:40;19.24;70.48
71801;HTU21D;59647;55.838;37.292;2023-04-28T07:35:08;19.05;70.17
71801;HTU21D;59647;55.838;37.292;2023-04-28T07:37:35;18.87;70.10
71801;HTU21D;59647;55.838;37.292;2023-04-28T07:40:01;18.78;70.93
71801;HTU21D;59647;55.838;37.292;2023-04-28T07:42:28;18.77;71.93
71801;HTU21D;59647;55.838;37.292;2023-04-28T07:44:54;18.66;71.67
71801;HTU21D;59647;55.838;37.292;2023-04-28T07:47:23;18.68;70.55
71801;HTU21D;59647;55.838;37.292;2023-04-28T07:49:49;18.68;70.66
71801;HTU21D;59647;55.838;37.292;2023-04-28T07:52:15;18.63;71.00
71801;HTU21D;59647;55.838;37.292;2023-04-28T07:54:41;18.54;71.76
71801;HTU21D;59647;55.838;37.292;2023-04-28T07:57:07;18.44;72.00
71801;HTU21D;59647;55.838;37.292;2023-04-28T07:59:33;18.42;71.84
71801;HTU21D;59647;55.838;37.292;2023-04-28T08:01:59;18.50;72.08
71801;HTU21D;59647;55.838;37.292;2023-04-28T08:04:25;18.58;71.54
71801;HTU21D;59647;55.838;37.292;2023-04-28T08:06:54;18.73;71.44
71801;HTU21D;59647;55.838;37.292;2023-04-28T08:09:20;18.85;70.07
71801;HTU21D;59647;55.838;37.292;2023-04-28T08:11:46;18.91;69.96
71801;HTU21D;59647;55.838;37.292;2023-04-28T08:14:12;18.84;70.59
71801;HTU21D;59647;55.838;37.292;2023-04-28T08:16:38;18.77;70.00
71801;HTU21D;59647;55.838;37.292;2023-04-28T08:19:06;18.70;70.63
71801;HTU21D;59647;55.838;37.292;2023-04-28T08:21:32;18.67;69.78
71801;HTU21D;59647;55.838;37.292;2023-04-28T08:23:59;18.63;69.93
71801;HTU21D;59647;55.838;37.292;2023-04-28T08:26:25;18.55;71.12
71801;HTU21D;59647;55.838;37.292;2023-04-28T08:28:52;18.37;71.96
71801;HTU21D;59647;55.838;37.292;2023-04-28T08:31:18;18.32;71.51
71801;HTU21D;59647;55.838;37.292;2023-04-28T08:33:44;18.35;70.31
71801;HTU21D;59647;55.838;37.292;2023-04-28T08:36:13;18.41;70.42
71801;HTU21D;59647;55.838;37.292;2023-04-28T08:38:43;18.46;69.96
71801;HTU21D;59647;55.838;37.292;2023-04-28T08:41:12;18.51;70.80
71801;HTU21D;59647;55.838;37.292;2023-04-28T08:43:39;18.54;69.67
71801;HTU21D;59647;55.838;37.292;2023-04-28T08:46:08;18.52;70.49
71801;HTU21D;59647;55.838;37.292;2023-04-28T08:48:42;18.51;70.45
71801;HTU21D;59647;55.838;37.292;2023-04-28T08:51:13;18.57;71.51
71801;HTU21D;59647;55.838;37.292;2023-04-28T08:53:43;18.62;71.04
71801;HTU21D;59647;55.838;37.292;2023-04-28T08:56:10;18.48;72.19
71801;HTU21D;59647;55.838;37.292;2023-04-28T08:58:38;18.36;71.40
71801;HTU21D;59647;55.838;37.292;2023-04-28T09:01:04;18.42;71.16
71801;HTU21D;59647;55.838;37.292;2023-04-28T09:03:31;18.53;70.68
71801;HTU21D;59647;55.838;37.292;2023-04-28T09:05:58;18.57;72.61
71801;HTU21D;59647;55.838;37.292;2023-04-28T09:08:24;18.41;72.55
71801;HTU21D;59647;55.838;37.292;2023-04-28T09:11:08;18.34;73.64
71801;HTU21D;59647;55.838;37.292;2023-04-28T09:13:35;18.40;71.72
71801;HTU21D;59647;55.838;37.292;2023-04-28T09:16:02;18.42;71.69
71801;HTU21D;59647;55.838;37.292;2023-04-28T09:18:29;18.37;71.26
71801;HTU21D;59647;55.838;37.292;2023-04-28T09:21:08;18.34;72.25
71801;HTU21D;59647;55.838;37.292;2023-04-28T09:23:46;18.29;71.95
71801;HTU21D;59647;55.838;37.292;2023-04-28T09:26:12;18.36;70.85
71801;HTU21D;59647;55.838;37.292;2023-04-28T09:28:38;18.43;70.73
71801;HTU21D;59647;55.838;37.292;2023-04-28T09:31:04;18.48;70.87
71801;HTU21D;59647;55.838;37.292;2023-04-28T09:33:30;18.43;70.59
71801;HTU21D;59647;55.838;37.292;2023-04-28T09:35:56;18.42;70.72
71801;HTU21D;59647;55.838;37.292;2023-04-28T09:38:23;18.33;71.24
71801;HTU21D;59647;55.838;37.292;2023-04-28T09:41:01;18.32;70.87
71801;HTU21D;59647;55.838;37.292;2023-04-28T09:43:32;18.25;72.15
71801;HTU21D;59647;55.838;37.292;2023-04-28T09:46:03;18.18;72.06
71801;HTU21D;59647;55.838;37.292;2023-04-28T09:48:34;18.02;75.67
71801;HTU21D;59647;55.838;37.292;2023-04-28T09:51:05;17.83;73.48
71801;HTU21D;59647;55.838;37.292;2023-04-28T09:53:33;17.70;75.94
71801;HTU21D;59647;55.838;37.292;2023-04-28T09:56:02;17.64;73.90
71801;HTU21D;59647;55.838;37.292;2023-04-28T09:58:30;17.62;76.21
71801;HTU21D;59647;55.838;37.292;2023-04-28T10:00:59;17.55;75.46
71801;HTU21D;59647;55.838;37.292;2023-04-28T10:03:27;17.54;74.38
71801;HTU21D;59647;55.838;37.292;2023-04-28T10:05:53;17.54;73.93
71801;HTU21D;59647;55.838;37.292;2023-04-28T10:08:21;17.55;74.04
71801;HTU21D;59647;55.838;37.292;2023-04-28T10:10:50;17.50;74.98
71801;HTU21D;59647;55.838;37.292;2023-04-28T10:13:21;17.53;74.79
71801;HTU21D;59647;55.838;37.292;2023-04-28T10:15:49;17.59;74.92
71801;HTU21D;59647;55.838;37.292;2023-04-28T10:18:16;17.65;74.66
71801;HTU21D;59647;55.838;37.292;2023-04-28T10:20:47;17.74;77.37
71801;HTU21D;59647;55.838;37.292;2023-04-28T10:25:58;17.90;77.77
71801;HTU21D;59647;55.838;37.292;2023-04-28T10:28:28;18.04;78.19
71801;HTU21D;59647;55.838;37.292;2023-04-28T10:31:17;18.24;79.02
71801;HTU21D;59647;55.838;37.292;2023-04-28T10:33:45;18.38;77.99
71801;HTU21D;59647;55.838;37.292;2023-04-28T10:36:47;18.54;77.44
71801;HTU21D;59647;55.838;37.292;2023-04-28T10:39:19;18.74;76.06
71801;HTU21D;59647;55.838;37.292;2023-04-28T10:41:46;18.79;76.76
71801;HTU21D;59647;55.838;37.292;2023-04-28T10:47:00;19.23;74.48
71801;HTU21D;59647;55.838;37.292;2023-04-28T10:55:32;19.67;72.93
71801;HTU21D;59647;55.838;37.292;2023-04-28T11:00:48;19.47;71.87
71801;HTU21D;59647;55.838;37.292;2023-04-28T11:03:39;19.44;71.00
71801;HTU21D;59647;55.838;37.292;2023-04-28T11:12:05;19.23;71.34
71801;HTU21D;59647;55.838;37.292;2023-04-28T11:14:34;19.13;70.75
71801;HTU21D;59647;55.838;37.292;2023-04-28T11:17:06;18.91;70.90
71801;HTU21D;59647;55.838;37.292;2023-04-28T11:24:54;18.68;71.13
71801;HTU21D;59647;55.838;37.292;2023-04-28T11:27:25;18.58;71.64
71801;HTU21D;59647;55.838;37.292;2023-04-28T11:29:52;18.42;71.10
71801;HTU21D;59647;55.838;37.292;2023-04-28T11:32:29;18.41;72.49
71801;HTU21D;59647;55.838;37.292;2023-04-28T11:34:55;18.38;71.42
71801;HTU21D;59647;55.838;37.292;2023-04-28T11:37:21;18.36;71.73
71801;HTU21D;59647;55.838;37.292;2023-04-28T11:39:48;18.30;71.71
71801;HTU21D;59647;55.838;37.292;2023-04-28T11:42:14;18.13;71.42
71801;HTU21D;59647;55.838;37.292;2023-04-28T11:44:52;17.90;73.39
71801;HTU21D;59647;55.838;37.292;2023-04-28T11:47:28;17.66;73.74
71801;HTU21D;59647;55.838;37.292;2023-04-28T11:49:54;17.61;72.90
71801;HTU21D;59647;55.838;37.292;2023-04-28T11:52:20;17.51;73.75
71801;HTU21D;59647;55.838;37.292;2023-04-28T11:54:52;17.29;76.67
71801;HTU21D;59647;55.838;37.292;2023-04-28T11:57:20;17.20;77.33
71801;HTU21D;59647;55.838;37.292;2023-04-28T11:59:46;16.92;80.90
71801;HTU21D;59647;55.838;37.292;2023-04-28T12:02:12;16.94;79.41
71801;HTU21D;59647;55.838;37.292;2023-04-28T12:04:40;16.99;76.95
71801;HTU21D;59647;55.838;37.292;2023-04-28T12:07:15;17.07;81.41
71801;HTU21D;59647;55.838;37.292;2023-04-28T12:12:42;16.90;80.29
71801;HTU21D;59647;55.838;37.292;2023-04-28T12:15:05;16.51;81.66
71801;HTU21D;59647;55.838;37.292;2023-04-28T12:17:39;16.42;82.31
71801;HTU21D;59647;55.838;37.292;2023-04-28T12:20:32;16.26;82.94
71801;HTU21D;59647;55.838;37.292;2023-04-28T12:22:59;16.42;78.59
71801;HTU21D;59647;55.838;37.292;2023-04-28T12:25:27;16.51;79.29
71801;HTU21D;59647;55.838;37.292;2023-04-28T12:28:06;16.28;81.18
71801;HTU21D;59647;55.838;37.292;2023-04-28T12:30:34;16.16;80.61
71801;HTU21D;59647;55.838;37.292;2023-04-28T12:33:04;16.03;78.95
71801;HTU21D;59647;55.838;37.292;2023-04-28T12:35:30;15.96;83.01
71801;HTU21D;59647;55.838;37.292;2023-04-28T12:37:57;15.99;79.91
71801;HTU21D;59647;55.838;37.292;2023-04-28T12:40:23;16.02;81.53
71801;HTU21D;59647;55.838;37.292;2023-04-28T12:42:49;16.01;79.74
71801;HTU21D;59647;55.838;37.292;2023-04-28T12:45:16;15.92;81.63
71801;HTU21D;59647;55.838;37.292;2023-04-28T12:47:42;15.99;78.11
71801;HTU21D;59647;55.838;37.292;2023-04-28T12:50:08;15.98;77.61
71801;HTU21D;59647;55.838;37.292;2023-04-28T12:52:34;15.95;77.89
71801;HTU21D;59647;55.838;37.292;2023-04-28T12:55:03;15.91;77.96
71801;HTU21D;59647;55.838;37.292;2023-04-28T12:57:31;15.84;78.14
71801;HTU21D;59647;55.838;37.292;2023-04-28T12:59:57;15.78;79.42
71801;HTU21D;59647;55.838;37.292;2023-04-28T13:02:23;15.71;77.72
71801;HTU21D;59647;55.838;37.292;2023-04-28T13:04:49;15.60;77.69
71801;HTU21D;59647;55.838;37.292;2023-04-28T13:07:16;15.59;78.09
71801;HTU21D;59647;55.838;37.292;2023-04-28T13:09:43;15.40;77.97
71801;HTU21D;59647;55.838;37.292;2023-04-28T13:12:09;15.39;78.09
71801;HTU21D;59647;55.838;37.292;2023-04-28T13:14:36;15.41;77.01
71801;HTU21D;59647;55.838;37.292;2023-04-28T13:17:02;15.39;77.13
71801;HTU21D;59647;55.838;37.292;2023-04-28T13:19:29;15.29;76.53
71801;HTU21D;59647;55.838;37.292;2023-04-28T13:21:56;15.09;79.20
71801;HTU21D;59647;55.838;37.292;2023-04-28T13:24:22;14.84;78.79
71801;HTU21D;59647;55.838;37.292;2023-04-28T13:26:48;14.86;78.02
71801;HTU21D;59647;55.838;37.292;2023-04-28T13:29:14;14.74;79.14
71801;HTU21D;59647;55.838;37.292;2023-04-28T13:31:40;14.62;80.83
71801;HTU21D;59647;55.838;37.292;2023-04-28T13:34:06;14.66;80.80
71801;HTU21D;59647;55.838;37.292;2023-04-28T13:36:34;14.65;79.16
71801;HTU21D;59647;55.838;37.292;2023-04-28T13:39:00;14.66;79.74
71801;HTU21D;59647;55.838;37.292;2023-04-28T13:41:26;14.64;81.32
71801;HTU21D;59647;55.838;37.292;2023-04-28T13:43:52;14.60;78.74
71801;HTU21D;59647;55.838;37.292;2023-04-28T13:46:19;14.54;78.84
71801;HTU21D;59647;55.838;37.292;2023-04-28T13:48:45;14.53;78.60
71801;HTU21D;59647;55.838;37.292;2023-04-28T13:51:12;14.54;77.76
71801;HTU21D;59647;55.838;37.292;2023-04-28T13:53:38;14.53;79.45
71801;HTU21D;59647;55.838;37.292;2023-04-28T13:56:05;14.42;80.75
71801;HTU21D;59647;55.838;37.292;2023-04-28T13:58:32;14.12;81.98
71801;HTU21D;59647;55.838;37.292;2023-04-28T14:00:58;14.12;80.86
71801;HTU21D;59647;55.838;37.292;2023-04-28T14:03:24;14.12;80.10
71801;HTU21D;59647;55.838;37.292;2023-04-28T14:05:52;14.11;79.51
71801;HTU21D;59647;55.838;37.292;2023-04-28T14:08:19;14.08;82.29
71801;HTU21D;59647;55.838;37.292;2023-04-28T14:10:48;14.11;79.47
71801;HTU21D;59647;55.838;37.292;2023-04-28T14:13:14;14.09;79.30
71801;HTU21D;59647;55.838;37.292;2023-04-28T14:15:41;14.12;79.43
71801;HTU21D;59647;55.838;37.292;2023-04-28T14:18:07;14.04;80.67
71801;HTU21D;59647;55.838;37.292;2023-04-28T14:20:34;14.07;78.63
71801;HTU21D;59647;55.838;37.292;2023-04-28T14:23:01;14.05;78.85
71801;HTU21D;59647;55.838;37.292;2023-04-28T14:25:27;14.06;79.71
71801;HTU21D;59647;55.838;37.292;2023-04-28T14:27:53;13.94;79.84
71801;HTU21D;59647;55.838;37.292;2023-04-28T14:30:20;13.86;80.08
71801;HTU21D;59647;55.838;37.292;2023-04-28T14:32:47;13.82;79.25
71801;HTU21D;59647;55.838;37.292;2023-04-28T14:35:14;13.79;81.34
71801;HTU21D;59647;55.838;37.292;2023-04-28T14:37:41;13.75;78.66
71801;HTU21D;59647;55.838;37.292;2023-04-28T14:40:07;13.73;80.65
71801;HTU21D;59647;55.838;37.292;2023-04-28T14:42:34;13.70;79.78
71801;HTU21D;59647;55.838;37.292;2023-04-28T14:45:03;13.69;79.72
71801;HTU21D;59647;55.838;37.292;2023-04-28T14:47:37;13.71;79.56
71801;HTU21D;59647;55.838;37.292;2023-04-28T14:50:05;13.75;77.56
71801;HTU21D;59647;55.838;37.292;2023-04-28T14:52:31;13.55;79.56
71801;HTU21D;59647;55.838;37.292;2023-04-28T14:54:59;13.52;80.02
71801;HTU21D;59647;55.838;37.292;2023-04-28T14:57:26;13.51;78.70
71801;HTU21D;59647;55.838;37.292;2023-04-28T14:59:52;13.53;79.97
71801;HTU21D;59647;55.838;37.292;2023-04-28T15:02:20;13.54;77.51
71801;HTU21D;59647;55.838;37.292;2023-04-28T15:04:51;13.43;79.53
71801;HTU21D;59647;55.838;37.292;2023-04-28T15:07:18;13.34;79.77
71801;HTU21D;59647;55.838;37.292;2023-04-28T15:09:45;13.31;79.36
71801;HTU21D;59647;55.838;37.292;2023-04-28T15:12:13;13.26;79.88
71801;HTU21D;59647;55.838;37.292;2023-04-28T15:14:39;13.20;79.40
71801;HTU21D;59647;55.838;37.292;2023-04-28T15:17:05;13.17;79.30
71801;HTU21D;59647;55.838;37.292;2023-04-28T15:19:31;13.11;80.68
71801;HTU21D;59647;55.838;37.292;2023-04-28T15:21:58;13.14;80.50
71801;HTU21D;59647;55.838;37.292;2023-04-28T15:24:24;13.16;81.21
71801;HTU21D;59647;55.838;37.292;2023-04-28T15:26:50;13.18;80.17
71801;HTU21D;59647;55.838;37.292;2023-04-28T15:29:16;13.05;81.18
71801;HTU21D;59647;55.838;37.292;2023-04-28T15:31:43;13.01;79.66
71801;HTU21D;59647;55.838;37.292;2023-04-28T15:34:10;12.95;80.81